Time;durP1;ratioP1;P1;durP2;ratioP2;P2;SDS_P1;SDS_P2;PMS_P1;PMS_P2;Temp;Humidity;BMP_temperature;BMP_pressure;BME280_temperature;BME280_humidity;BME280_pressure;Samples;Min_cycle;Max_cycle;Signal;HPM_P1;HPM_P2
2022/09/24 00:00:10;;;;;;;8.95;3.55;;;;;;;;;;5044058;28;20068;-64
2022/09/24 00:02:36;;;;;;;8.02;3.10;;;;;;;;;;5047344;28;20036;-65
2022/09/24 00:05:02;;;;;;;;;;;;;;;;;;5045812;28;20144;-65
2022/09/24 00:07:28;;;;;;;13.68;5.05;;;;;;;;;;5043615;28;19916;-65
2022/09/24 00:09:55;;;;;;;10.75;5.13;;;;;;;;;;5046710;28;20045;-65
2022/09/24 00:12:21;;;;;;;11.25;5.00;;;;;;;;;;5044971;28;20103;-65
2022/09/24 00:14:46;;;;;;;;;;;;;;;;;;5049062;28;20043;-65
2022/09/24 00:17:13;;;;;;;9.82;4.55;;;;;;;;;;5046002;28;19916;-65
2022/09/24 00:19:39;;;;;;;10.65;4.82;;;;;;;;;;5048470;28;20087;-65
2022/09/24 00:22:05;;;;;;;11.05;4.72;;;;;;;;;;5045994;28;20024;-65
2022/09/24 00:27:16;;;;;;;14.05;5.18;;;;;;;;;;5045385;28;20486;-65
2022/09/24 00:29:41;;;;;;;;;;;;;;;;;;5048333;28;20036;-65
2022/09/24 00:32:09;;;;;;;10.98;5.38;;;;;;;;;;5045382;28;20247;-65
2022/09/24 00:34:35;;;;;;;12.18;5.07;;;;;;;;;;5044167;28;20059;-65
2022/09/24 00:37:01;;;;;;;10.85;4.55;;;;;;;;;;5047051;28;20964;-65
2022/09/24 00:39:28;;;;;;;10.40;3.70;;;;;;;;;;5044947;28;20631;-66
2022/09/24 00:41:54;;;;;;;9.25;3.20;;;;;;;;;;5048752;28;20479;-65
2022/09/24 00:44:32;;;;;;;11.25;2.72;;;;;;;;;;5045276;28;20028;-65
2022/09/24 00:46:59;;;;;;;8.75;2.40;;;;;;;;;;5049309;28;20082;-65
2022/09/24 00:49:25;;;;;;;8.60;2.47;;;;;;;;;;5043025;28;20122;-65
2022/09/24 00:51:52;;;;;;;11.32;2.03;;;;;;;;;;5047751;28;20532;-65
2022/09/24 00:54:23;;;;;;;12.88;2.25;;;;;;;;;;5040521;28;20036;-65
2022/09/24 00:56:49;;;;;;;6.75;1.88;;;;;;;;;;5045848;28;20032;-65
2022/09/24 00:59:17;;;;;;;6.10;1.80;;;;;;;;;;5043199;28;20067;-65
2022/09/24 01:01:44;;;;;;;8.30;1.92;;;;;;;;;;5047318;28;20028;-65
2022/09/24 01:04:10;;;;;;;11.05;2.00;;;;;;;;;;5041372;28;20537;-65
2022/09/24 01:06:37;;;;;;;6.97;1.90;;;;;;;;;;5046126;28;20053;-67
2022/09/24 01:09:03;;;;;;;6.07;1.67;;;;;;;;;;5041054;28;20348;-65
2022/09/24 01:11:41;;;;;;;5.95;1.50;;;;;;;;;;5044124;28;20139;-65
2022/09/24 01:14:20;;;;;;;7.47;1.92;;;;;;;;;;5043639;28;20035;-64
2022/09/24 01:16:52;;;;;;;8.02;1.75;;;;;;;;;;5045256;28;20448;-65
2022/09/24 01:19:34;;;;;;;7.15;1.67;;;;;;;;;;5042678;28;20277;-65
2022/09/24 01:22:06;;;;;;;9.57;1.77;;;;;;;;;;5046619;28;20115;-65
2022/09/24 01:24:50;;;;;;;7.13;1.70;;;;;;;;;;5045677;28;20752;-65
2022/09/24 01:27:18;;;;;;;7.45;2.17;;;;;;;;;;5044145;28;20133;-65
2022/09/24 01:30:01;;;;;;;11.70;1.90;;;;;;;;;;5045555;28;20044;-64
2022/09/24 01:32:32;;;;;;;7.93;1.83;;;;;;;;;;5043046;28;20121;-64
2022/09/24 01:35:17;;;;;;;8.40;2.05;;;;;;;;;;5047411;28;20127;-65
2022/09/24 01:37:45;;;;;;;7.88;1.90;;;;;;;;;;5049599;28;20482;-65
2022/09/24 01:40:12;;;;;;;10.88;2.28;;;;;;;;;;5047166;28;20028;-64
2022/09/24 01:42:39;;;;;;;7.85;1.95;;;;;;;;;;5050947;28;20036;-65
2022/09/24 01:45:05;;;;;;;7.85;1.80;;;;;;;;;;5050256;28;20020;-65
2022/09/24 01:47:38;;;;;;;7.95;1.90;;;;;;;;;;5049568;28;20028;-65
2022/09/24 01:50:05;;;;;;;8.35;1.70;;;;;;;;;;5048210;28;20518;-64
2022/09/24 01:52:34;;;;;;;8.23;1.80;;;;;;;;;;5040128;28;20414;-65
2022/09/24 01:55:02;;;;;;;7.75;1.80;;;;;;;;;;5049173;28;20094;-65
2022/09/24 01:57:33;;;;;;;7.07;1.67;;;;;;;;;;5047427;28;20032;-65
2022/09/24 02:00:11;;;;;;;6.28;1.77;;;;;;;;;;5045208;28;20033;-65
2022/09/24 02:02:41;;;;;;;9.50;1.90;;;;;;;;;;5049971;28;20581;-65
2022/09/24 02:05:14;;;;;;;6.82;1.67;;;;;;;;;;5048293;28;20029;-64
2022/09/24 02:08:00;;;;;;;4.45;1.42;;;;;;;;;;5050016;28;20021;-65
2022/09/24 02:10:28;;;;;;;7.78;2.05;;;;;;;;;;5047600;28;20033;-65
2022/09/24 02:12:58;;;;;;;8.48;1.95;;;;;;;;;;5048545;28;20036;-64
2022/09/24 02:15:26;;;;;;;7.10;1.50;;;;;;;;;;5045099;28;20097;-65
2022/09/24 02:17:54;;;;;;;8.32;1.90;;;;;;;;;;5049583;28;20167;-65
2022/09/24 02:20:21;;;;;;;7.95;2.00;;;;;;;;;;5046965;28;20060;-65
2022/09/24 02:22:49;;;;;;;8.18;1.55;;;;;;;;;;5050761;28;20455;-65
2022/09/24 02:25:19;;;;;;;6.07;1.60;;;;;;;;;;5046965;28;20047;-65
2022/09/24 02:27:45;;;;;;;7.93;1.67;;;;;;;;;;5045431;28;20090;-65
2022/09/24 02:30:11;;;;;;;8.23;1.83;;;;;;;;;;5045795;28;20040;-65
2022/09/24 02:32:39;;;;;;;7.13;1.42;;;;;;;;;;5050581;28;20032;-65
2022/09/24 02:35:08;;;;;;;6.57;1.50;;;;;;;;;;5048934;28;20038;-65
2022/09/24 02:37:35;;;;;;;6.68;1.77;;;;;;;;;;5048925;28;20043;-65
2022/09/24 02:40:03;;;;;;;6.72;1.90;;;;;;;;;;5049736;28;20048;-65
2022/09/24 02:42:30;;;;;;;7.85;1.77;;;;;;;;;;5045336;28;20027;-64
2022/09/24 02:44:58;;;;;;;5.85;1.73;;;;;;;;;;5047427;28;20147;-64
2022/09/24 02:47:25;;;;;;;7.97;1.83;;;;;;;;;;5044889;28;20033;-65
2022/09/24 02:49:51;;;;;;;6.20;1.80;;;;;;;;;;5048611;28;20032;-65
2022/09/24 02:52:17;;;;;;;7.20;1.60;;;;;;;;;;5046409;28;20367;-65
2022/09/24 02:54:44;;;;;;;6.65;1.50;;;;;;;;;;5044193;28;20156;-65
2022/09/24 02:57:10;;;;;;;8.77;1.70;;;;;;;;;;5040004;28;20024;-65
2022/09/24 02:59:36;;;;;;;6.45;1.50;;;;;;;;;;5049756;28;20131;-65
2022/09/24 03:02:02;;;;;;;6.55;1.50;;;;;;;;;;5049636;28;20107;-65
2022/09/24 03:04:29;;;;;;;6.70;1.30;;;;;;;;;;5046138;28;20753;-65
2022/09/24 03:06:55;;;;;;;8.02;1.70;;;;;;;;;;5050520;28;20047;-65
2022/09/24 03:09:21;;;;;;;8.30;1.77;;;;;;;;;;5045797;28;20124;-65
2022/09/24 03:11:49;;;;;;;6.20;1.50;;;;;;;;;;5044970;28;20024;-65
2022/09/24 03:14:15;;;;;;;7.80;1.80;;;;;;;;;;5046804;28;20468;-65
2022/09/24 03:16:41;;;;;;;14.27;2.10;;;;;;;;;;5049160;28;20032;-65
2022/09/24 03:19:07;;;;;;;7.95;1.50;;;;;;;;;;5047106;28;20039;-65
2022/09/24 03:21:33;;;;;;;5.32;1.50;;;;;;;;;;5049705;28;20477;-66
2022/09/24 03:23:59;;;;;;;8.45;1.70;;;;;;;;;;5047564;28;20522;-66
2022/09/24 03:26:26;;;;;;;7.93;2.00;;;;;;;;;;5044723;28;20028;-65
2022/09/24 03:28:52;;;;;;;7.18;1.80;;;;;;;;;;5048867;28;20123;-66
2022/09/24 03:31:18;;;;;;;9.77;1.90;;;;;;;;;;5045786;28;20490;-65
2022/09/24 03:33:46;;;;;;;8.70;1.90;;;;;;;;;;5047331;28;20515;-65
2022/09/24 03:36:14;;;;;;;4.80;1.23;;;;;;;;;;5046033;28;20402;-66
2022/09/24 03:38:41;;;;;;;10.45;2.00;;;;;;;;;;5045219;28;20036;-65
2022/09/24 03:41:08;;;;;;;8.60;1.63;;;;;;;;;;5045583;28;20032;-66
2022/09/24 03:43:34;;;;;;;9.65;1.77;;;;;;;;;;5048134;28;20485;-66
2022/09/24 03:46:00;;;;;;;8.38;1.80;;;;;;;;;;5049269;28;20581;-65
2022/09/24 03:48:26;;;;;;;5.78;1.35;;;;;;;;;;5045814;28;23391;-65
2022/09/24 03:50:53;;;;;;;8.35;1.50;;;;;;;;;;5048579;28;20017;-65
2022/09/24 03:53:19;;;;;;;7.20;1.70;;;;;;;;;;5042553;28;20043;-65
2022/09/24 03:55:47;;;;;;;8.32;1.88;;;;;;;;;;5040533;28;20108;-65
2022/09/24 03:58:16;;;;;;;6.35;1.70;;;;;;;;;;5039774;28;20477;-65
2022/09/24 04:00:42;;;;;;;6.78;1.60;;;;;;;;;;5048389;28;20060;-65
2022/09/24 04:03:08;;;;;;;9.68;1.90;;;;;;;;;;5043684;28;20542;-64
2022/09/24 04:05:35;;;;;;;6.55;1.50;;;;;;;;;;5044466;28;20441;-65
2022/09/24 04:08:01;;;;;;;9.10;1.67;;;;;;;;;;5048684;28;20032;-65
2022/09/24 04:10:28;;;;;;;8.13;1.75;;;;;;;;;;5045084;28;20039;-65
2022/09/24 04:12:54;;;;;;;7.78;1.90;;;;;;;;;;5049101;28;20094;-65
2022/09/24 04:15:22;;;;;;;6.90;1.50;;;;;;;;;;5044849;28;20378;-65
2022/09/24 04:17:51;;;;;;;8.93;1.60;;;;;;;;;;5044733;28;20134;-64
2022/09/24 04:20:21;;;;;;;7.28;1.67;;;;;;;;;;5045853;28;20445;-65
2022/09/24 04:22:48;;;;;;;8.88;1.63;;;;;;;;;;5047628;28;20135;-65
2022/09/24 04:25:14;;;;;;;7.45;1.65;;;;;;;;;;5044009;28;20021;-64
2022/09/24 04:27:40;;;;;;;6.20;1.60;;;;;;;;;;5047366;28;20028;-65
2022/09/24 04:30:07;;;;;;;6.10;1.70;;;;;;;;;;5045471;28;20105;-65
2022/09/24 04:32:33;;;;;;;5.53;1.55;;;;;;;;;;5048677;28;20059;-65
2022/09/24 04:34:59;;;;;;;8.48;1.52;;;;;;;;;;5046108;28;20745;-65
2022/09/24 04:37:25;;;;;;;6.50;1.70;;;;;;;;;;5040513;28;20127;-65
2022/09/24 04:39:51;;;;;;;8.57;1.80;;;;;;;;;;5048237;28;20032;-65
2022/09/24 04:42:17;;;;;;;5.50;1.60;;;;;;;;;;5044798;28;20078;-65
2022/09/24 04:44:46;;;;;;;6.07;1.60;;;;;;;;;;5048242;28;20561;-65
2022/09/24 04:47:16;;;;;;;7.88;1.67;;;;;;;;;;5043449;28;20032;-65
2022/09/24 04:49:44;;;;;;;8.07;1.77;;;;;;;;;;5046331;28;20138;-65
2022/09/24 04:52:13;;;;;;;7.20;1.75;;;;;;;;;;5042996;28;20147;-65
2022/09/24 04:54:46;;;;;;;8.80;1.77;;;;;;;;;;5048576;28;20051;-65
2022/09/24 04:57:15;;;;;;;11.50;2.08;;;;;;;;;;5044127;28;20576;-65
2022/09/24 04:59:43;;;;;;;7.07;1.70;;;;;;;;;;5048251;28;20111;-65
2022/09/24 05:02:09;;;;;;;11.75;2.50;;;;;;;;;;5043480;28;20028;-66
2022/09/24 05:04:36;;;;;;;9.55;2.63;;;;;;;;;;5047119;28;20013;-66
2022/09/24 05:07:03;;;;;;;9.40;3.03;;;;;;;;;;5046841;28;20059;-66
2022/09/24 05:09:30;;;;;;;10.32;2.63;;;;;;;;;;5048886;28;20506;-66
2022/09/24 05:11:57;;;;;;;13.45;2.25;;;;;;;;;;5052667;28;20024;-66
2022/09/24 05:14:23;;;;;;;10.63;2.47;;;;;;;;;;5048365;28;20029;-66
2022/09/24 05:16:50;;;;;;;11.32;2.25;;;;;;;;;;5048347;28;20032;-66
2022/09/24 05:19:16;;;;;;;10.60;2.55;;;;;;;;;;5046726;28;20442;-66
2022/09/24 05:21:42;;;;;;;;;;;;;;;;;;5050425;28;20029;-66
2022/09/24 05:24:08;;;;;;;12.15;2.70;;;;;;;;;;5046370;28;19912;-66
2022/09/24 05:29:19;;;;;;;13.15;2.63;;;;;;;;;;5048205;28;20044;-66
2022/09/24 05:31:45;;;;;;;13.15;2.85;;;;;;;;;;5046411;28;20334;-66
2022/09/24 05:34:13;;;;;;;12.48;2.50;;;;;;;;;;5045528;28;20036;-66
2022/09/24 05:36:39;;;;;;;11.13;2.67;;;;;;;;;;5048913;28;20313;-66
2022/09/24 05:39:05;;;;;;;9.55;2.60;;;;;;;;;;5049712;28;20421;-66
2022/09/24 05:41:32;;;;;;;10.65;2.75;;;;;;;;;;5049694;28;20032;-66
2022/09/24 05:43:58;;;;;;;;;;;;;;;;;;5051429;28;20319;-66
2022/09/24 05:46:24;;;;;;;10.18;2.53;;;;;;;;;;5043052;28;19965;-66
2022/09/24 05:48:51;;;;;;;15.90;3.53;;;;;;;;;;5051557;28;20028;-66
2022/09/24 05:51:17;;;;;;;;;;;;;;;;;;5047363;28;20036;-66
2022/09/24 05:53:43;;;;;;;12.55;2.78;;;;;;;;;;5050525;28;19966;-66
2022/09/24 05:56:09;;;;;;;;;;;;;;;;;;5038082;28;20467;-66
2022/09/24 05:58:36;;;;;;;11.73;2.90;;;;;;;;;;5048107;28;19923;-65
2022/09/24 06:01:02;;;;;;;11.90;3.30;;;;;;;;;;5047765;28;20542;-66
2022/09/24 06:03:31;;;;;;;;;;;;;;;;;;5044989;28;21093;-66
2022/09/24 06:06:03;;;;;;;15.48;3.17;;;;;;;;;;5046553;28;19947;-66
2022/09/24 06:08:31;;;;;;;12.93;3.28;;;;;;;;;;5047202;28;20038;-65
2022/09/24 06:11:07;;;;;;;13.75;3.40;;;;;;;;;;5047394;28;20036;-66
2022/09/24 06:13:34;;;;;;;10.65;3.05;;;;;;;;;;5049351;28;20578;-66
2022/09/24 06:16:10;;;;;;;14.13;3.13;;;;;;;;;;5050165;28;20110;-66
2022/09/24 06:18:38;;;;;;;11.88;3.42;;;;;;;;;;5046462;28;20045;-66
2022/09/24 06:21:06;;;;;;;12.63;3.50;;;;;;;;;;5050296;28;20482;-66
2022/09/24 06:23:33;;;;;;;12.82;3.80;;;;;;;;;;5048082;28;20318;-67
2022/09/24 06:25:59;;;;;;;10.60;3.25;;;;;;;;;;5049882;28;20074;-67
2022/09/24 06:28:25;;;;;;;15.40;3.53;;;;;;;;;;5041297;28;20355;-67
2022/09/24 06:30:51;;;;;;;;;;;;;;;;;;5048747;28;20462;-67
2022/09/24 06:33:18;;;;;;;16.38;3.50;;;;;;;;;;5044777;28;20469;-67
2022/09/24 06:35:45;;;;;;;11.48;3.20;;;;;;;;;;5049454;28;20393;-67
2022/09/24 06:38:10;;;;;;;;;;;;;;;;;;5047009;28;20029;-67
2022/09/24 06:40:37;;;;;;;13.88;3.55;;;;;;;;;;5050068;28;20488;-67
2022/09/24 06:43:05;;;;;;;12.73;2.95;;;;;;;;;;5049165;28;20028;-65
2022/09/24 06:45:31;;;;;;;10.80;2.55;;;;;;;;;;5036728;28;20265;-65
2022/09/24 06:47:57;;;;;;;;;;;;;;;;;;5046889;28;20360;-66
2022/09/24 06:50:24;;;;;;;16.00;3.55;;;;;;;;;;5055628;28;19912;-66
2022/09/24 06:52:51;;;;;;;11.73;2.95;;;;;;;;;;5041316;28;20466;-66
2022/09/24 06:55:18;;;;;;;13.10;3.33;;;;;;;;;;5044857;28;20036;-68
2022/09/24 06:57:44;;;;;;;16.60;3.65;;;;;;;;;;5049487;28;20420;-66
2022/09/24 07:00:11;;;;;;;13.43;3.15;;;;;;;;;;5046141;28;20040;-66
2022/09/24 07:02:37;;;;;;;10.98;2.90;;;;;;;;;;5048417;28;20517;-65
2022/09/24 07:05:04;;;;;;;13.43;3.00;;;;;;;;;;5049308;28;20028;-66
2022/09/24 07:07:33;;;;;;;11.40;2.80;;;;;;;;;;5045814;28;20234;-66
2022/09/24 07:10:05;;;;;;;12.07;2.75;;;;;;;;;;5048315;28;20478;-66
2022/09/24 07:12:31;;;;;;;12.20;3.00;;;;;;;;;;5046167;28;20056;-65
2022/09/24 07:14:59;;;;;;;11.73;2.33;;;;;;;;;;5047744;28;20037;-66
2022/09/24 07:17:26;;;;;;;11.18;2.92;;;;;;;;;;5033557;28;20033;-66
2022/09/24 07:19:52;;;;;;;13.55;3.78;;;;;;;;;;5048486;28;20074;-66
2022/09/24 07:22:19;;;;;;;11.07;2.75;;;;;;;;;;5043853;28;20032;-66
2022/09/24 07:24:45;;;;;;;10.38;2.47;;;;;;;;;;5048564;28;20366;-65
2022/09/24 07:27:12;;;;;;;10.50;2.90;;;;;;;;;;5045274;28;20147;-65
2022/09/24 07:29:38;;;;;;;10.95;2.40;;;;;;;;;;5048935;28;20326;-66
2022/09/24 07:32:04;;;;;;;;;;;;;;;;;;5049496;28;20024;-66
2022/09/24 07:34:30;;;;;;;8.90;2.92;;;;;;;;;;5045597;28;19939;-66
2022/09/24 07:36:56;;;;;;;9.60;2.75;;;;;;;;;;5048711;28;20122;-66
2022/09/24 07:39:23;;;;;;;8.52;2.30;;;;;;;;;;5044137;28;20337;-67
2022/09/24 07:41:51;;;;;;;9.27;2.30;;;;;;;;;;5049012;28;20522;-66
2022/09/24 07:44:19;;;;;;;10.80;2.50;;;;;;;;;;5045221;28;20024;-66
2022/09/24 07:46:47;;;;;;;10.63;2.58;;;;;;;;;;5047627;28;20031;-66
2022/09/24 07:49:13;;;;;;;9.68;2.60;;;;;;;;;;5033486;28;20056;-65
2022/09/24 07:51:39;;;;;;;11.32;2.70;;;;;;;;;;5046570;28;20116;-67
2022/09/24 07:54:06;;;;;;;9.23;2.55;;;;;;;;;;5048285;28;20478;-66
2022/09/24 07:56:32;;;;;;;10.60;2.75;;;;;;;;;;5046491;28;20166;-66
2022/09/24 07:58:58;;;;;;;10.30;2.40;;;;;;;;;;5043678;28;20438;-65
2022/09/24 08:01:25;;;;;;;8.50;2.58;;;;;;;;;;5045401;28;20032;-67
2022/09/24 08:03:51;;;;;;;10.52;2.50;;;;;;;;;;5048042;28;20069;-66
2022/09/24 08:06:18;;;;;;;12.18;4.18;;;;;;;;;;5037332;28;20029;-65
2022/09/24 08:08:45;;;;;;;15.43;6.60;;;;;;;;;;5040325;28;20071;-65
2022/09/24 08:11:12;;;;;;;16.67;7.45;;;;;;;;;;5032651;28;20265;-65
2022/09/24 08:13:38;;;;;;;24.83;13.02;;;;;;;;;;5037244;28;20198;-65
2022/09/24 08:16:05;;;;;;;21.80;11.32;;;;;;;;;;5041798;28;20028;-65
2022/09/24 08:18:31;;;;;;;20.15;9.45;;;;;;;;;;5037945;28;20079;-65
2022/09/24 08:20:58;;;;;;;17.23;8.05;;;;;;;;;;5043044;28;20056;-65
2022/09/24 08:23:25;;;;;;;14.90;6.70;;;;;;;;;;5041723;28;20132;-65
2022/09/24 08:25:53;;;;;;;12.68;4.88;;;;;;;;;;5042559;28;20124;-64
2022/09/24 08:28:19;;;;;;;13.00;4.10;;;;;;;;;;5039637;28;20474;-65
2022/09/24 08:30:45;;;;;;;10.27;3.75;;;;;;;;;;5042710;28;20570;-65
2022/09/24 08:33:12;;;;;;;11.65;3.80;;;;;;;;;;5038334;28;20493;-65
2022/09/24 08:35:39;;;;;;;10.40;2.90;;;;;;;;;;5042489;28;20745;-65
2022/09/24 08:38:05;;;;;;;8.02;2.55;;;;;;;;;;5043799;28;20063;-64
2022/09/24 08:40:42;;;;;;;9.00;2.33;;;;;;;;;;5039562;28;20050;-65
2022/09/24 08:43:17;;;;;;;8.80;2.50;;;;;;;;;;5031132;28;20033;-65
2022/09/24 08:48:38;;;;;;;8.48;2.88;;;;;;;;;;5040211;28;20040;-64
2022/09/24 08:51:06;;;;;;;7.40;2.83;;;;;;;;;;5035969;28;20398;-64
2022/09/24 08:53:48;;;;;;;12.75;4.18;;;;;;;;;;5038788;28;20067;-65
2022/09/24 08:56:17;;;;;;;7.80;2.65;;;;;;;;;;5040049;28;20013;-65
2022/09/24 08:58:52;;;;;;;7.72;2.17;;;;;;;;;;5042753;28;20458;-64
2022/09/24 09:01:39;;;;;;;10.50;2.42;;;;;;;;;;5042211;28;20267;-66
2022/09/24 09:04:20;;;;;;;8.80;2.30;;;;;;;;;;5039314;28;20049;-66
2022/09/24 09:06:46;;;;;;;7.93;2.10;;;;;;;;;;5043120;28;20035;-65
2022/09/24 09:09:26;;;;;;;8.43;2.83;;;;;;;;;;5040876;28;20497;-64
2022/09/24 09:11:58;;;;;;;8.80;2.45;;;;;;;;;;5039127;28;20041;-64
2022/09/24 09:14:24;;;;;;;7.38;2.08;;;;;;;;;;5036172;28;20497;-64
2022/09/24 09:17:14;;;;;;;6.90;1.90;;;;;;;;;;5042825;28;20029;-64
2022/09/24 09:19:41;;;;;;;6.00;1.70;;;;;;;;;;5045478;28;20067;-65
2022/09/24 09:22:14;;;;;;;11.80;1.85;;;;;;;;;;5042821;28;20735;-66
2022/09/24 09:24:47;;;;;;;6.72;1.90;;;;;;;;;;5038396;28;20055;-65
2022/09/24 09:27:14;;;;;;;10.02;2.00;;;;;;;;;;5038939;28;20054;-65
2022/09/24 09:29:45;;;;;;;6.18;1.67;;;;;;;;;;5042201;28;20036;-65
2022/09/24 09:32:17;;;;;;;8.68;1.60;;;;;;;;;;5037622;28;20024;-66
2022/09/24 09:34:43;;;;;;;6.00;1.60;;;;;;;;;;5041610;28;20112;-64
2022/09/24 09:37:24;;;;;;;8.25;1.70;;;;;;;;;;5035009;28;20087;-65
2022/09/24 09:40:04;;;;;;;6.50;1.60;;;;;;;;;;5040538;28;20164;-66
2022/09/24 09:42:39;;;;;;;8.40;2.13;;;;;;;;;;5036363;28;20566;-67
2022/09/24 09:45:14;;;;;;;12.07;2.17;;;;;;;;;;5040802;28;20024;-65
2022/09/24 09:47:47;;;;;;;10.18;2.10;;;;;;;;;;5042302;28;20102;-65
2022/09/24 09:50:31;;;;;;;9.30;2.00;;;;;;;;;;5038780;28;20025;-66
2022/09/24 09:52:57;;;;;;;6.82;1.70;;;;;;;;;;5037042;28;20036;-67
2022/09/24 09:55:27;;;;;;;7.93;2.05;;;;;;;;;;5040107;28;20032;-66
2022/09/24 09:57:58;;;;;;;8.75;1.83;;;;;;;;;;5042945;28;20033;-66
2022/09/24 10:00:33;;;;;;;8.75;1.85;;;;;;;;;;5042643;28;20573;-66
2022/09/24 10:02:59;;;;;;;7.60;1.63;;;;;;;;;;5041224;28;20134;-66
2022/09/24 10:05:27;;;;;;;8.88;1.98;;;;;;;;;;5039955;28;20028;-65
2022/09/24 10:07:56;;;;;;;6.60;1.58;;;;;;;;;;5043775;28;20036;-64
2022/09/24 10:10:26;;;;;;;7.07;1.80;;;;;;;;;;5042450;28;20021;-67
2022/09/24 10:13:12;;;;;;;9.27;1.75;;;;;;;;;;5045577;28;20033;-66
2022/09/24 10:16:02;;;;;;;7.53;1.70;;;;;;;;;;5048087;28;20192;-67
2022/09/24 10:18:37;;;;;;;8.52;1.85;;;;;;;;;;5038080;28;20036;-67
2022/09/24 10:21:10;;;;;;;8.80;1.80;;;;;;;;;;5046567;28;20060;-68
2022/09/24 10:23:42;;;;;;;5.68;1.75;;;;;;;;;;5046192;28;20031;-66
2022/09/24 10:26:08;;;;;;;9.57;1.70;;;;;;;;;;5043324;28;20032;-66
2022/09/24 10:31:25;;;;;;;7.75;1.80;;;;;;;;;;5042049;28;20050;-65
2022/09/24 10:33:54;;;;;;;9.05;1.90;;;;;;;;;;5042780;28;20110;-67
2022/09/24 10:36:21;;;;;;;7.95;2.08;;;;;;;;;;5043693;28;20028;-66
2022/09/24 10:38:48;;;;;;;7.95;1.75;;;;;;;;;;5046327;28;20025;-66
2022/09/24 10:41:26;;;;;;;6.43;1.70;;;;;;;;;;5041582;28;20028;-66
2022/09/24 10:43:56;;;;;;;7.50;1.65;;;;;;;;;;5044363;28;20032;-66
2022/09/24 10:46:22;;;;;;;6.35;1.65;;;;;;;;;;5038948;28;20067;-67
2022/09/24 10:49:07;;;;;;;8.88;2.08;;;;;;;;;;5043790;28;20032;-66
2022/09/24 10:51:36;;;;;;;8.70;1.95;;;;;;;;;;5045011;28;20035;-66
2022/09/24 10:54:14;;;;;;;6.68;1.70;;;;;;;;;;5038339;28;20181;-66
2022/09/24 10:56:46;;;;;;;7.53;2.00;;;;;;;;;;5036542;28;20107;-65
2022/09/24 10:59:21;;;;;;;8.95;1.63;;;;;;;;;;5037443;28;20033;-66
2022/09/24 11:02:10;;;;;;;8.55;2.00;;;;;;;;;;5044014;28;20649;-65
2022/09/24 11:04:39;;;;;;;9.98;2.03;;;;;;;;;;5043183;28;20626;-66
2022/09/24 11:07:18;;;;;;;9.73;2.28;;;;;;;;;;5037546;28;20570;-65
2022/09/24 11:09:47;;;;;;;9.57;2.22;;;;;;;;;;5043230;28;20046;-66
2022/09/24 11:12:25;;;;;;;8.27;2.08;;;;;;;;;;5038480;28;20496;-66
2022/09/24 11:15:00;;;;;;;7.75;2.13;;;;;;;;;;5040797;28;20117;-65
2022/09/24 11:17:34;;;;;;;6.80;1.60;;;;;;;;;;5040849;28;20048;-65
2022/09/24 11:20:09;;;;;;;9.07;1.80;;;;;;;;;;5039972;28;20036;-65
2022/09/24 11:22:54;;;;;;;9.43;2.05;;;;;;;;;;5041379;28;20424;-65
2022/09/24 11:25:32;;;;;;;8.32;2.03;;;;;;;;;;5035118;28;20139;-65
2022/09/24 11:28:04;;;;;;;9.27;2.22;;;;;;;;;;5045993;28;20036;-66
2022/09/24 11:30:46;;;;;;;7.78;1.85;;;;;;;;;;5039547;28;20427;-66
2022/09/24 11:33:30;;;;;;;7.22;1.77;;;;;;;;;;5041976;28;20366;-66
2022/09/24 11:35:57;;;;;;;7.05;1.70;;;;;;;;;;5043903;28;20041;-66
2022/09/24 11:38:42;;;;;;;6.25;1.48;;;;;;;;;;5039531;28;20036;-66
2022/09/24 11:41:32;;;;;;;6.33;1.80;;;;;;;;;;5037839;28;20036;-67
2022/09/24 11:44:00;;;;;;;8.30;1.70;;;;;;;;;;5043756;28;20269;-66
2022/09/24 11:46:35;;;;;;;6.93;1.60;;;;;;;;;;5039836;28;20573;-66
2022/09/24 11:49:04;;;;;;;6.43;1.52;;;;;;;;;;5044925;28;20115;-67
2022/09/24 11:51:30;;;;;;;7.35;1.88;;;;;;;;;;5040641;28;20032;-66
2022/09/24 11:54:06;;;;;;;7.18;1.70;;;;;;;;;;5045028;28;20021;-65
2022/09/24 11:56:35;;;;;;;9.00;1.92;;;;;;;;;;5041273;28;20792;-65
2022/09/24 11:59:10;;;;;;;9.88;2.00;;;;;;;;;;5037925;28;20082;-65
2022/09/24 12:01:36;;;;;;;;;;;;;;;;;;5044348;28;20135;-65
2022/09/24 12:04:23;;;;;;;8.80;1.90;;;;;;;;;;5046130;28;19916;-65
2022/09/24 12:07:06;;;;;;;9.85;2.00;;;;;;;;;;5034998;28;20029;-64
2022/09/24 12:09:41;;;;;;;8.60;2.10;;;;;;;;;;5042786;28;20031;-67
2022/09/24 12:12:14;;;;;;;8.30;1.77;;;;;;;;;;5044608;28;20043;-67
2022/09/24 12:14:40;;;;;;;11.38;2.25;;;;;;;;;;5044313;28;20115;-67
2022/09/24 12:17:09;;;;;;;7.40;1.90;;;;;;;;;;5039440;28;20340;-66
2022/09/24 12:19:38;;;;;;;5.07;1.48;;;;;;;;;;5039271;28;20028;-67
2022/09/24 12:22:05;;;;;;;12.57;2.10;;;;;;;;;;5041397;28;20036;-66
2022/09/24 12:24:37;;;;;;;6.47;1.80;;;;;;;;;;5036370;28;20390;-65
2022/09/24 12:27:14;;;;;;;11.13;2.00;;;;;;;;;;5044888;28;20124;-66
2022/09/24 12:35:15;;;;;;;8.18;1.98;;;;;;;;;;5037886;28;20090;-65
2022/09/24 12:37:42;;;;;;;7.72;1.85;;;;;;;;;;5043829;28;20028;-66
2022/09/24 12:40:11;;;;;;;8.13;1.90;;;;;;;;;;5039993;28;20029;-66
2022/09/24 12:42:43;;;;;;;7.90;1.90;;;;;;;;;;5043829;28;20033;-66
2022/09/24 12:45:17;;;;;;;8.00;2.10;;;;;;;;;;5039318;28;20032;-66
2022/09/24 12:47:58;;;;;;;8.82;1.60;;;;;;;;;;5041168;28;20474;-66
2022/09/24 12:50:26;;;;;;;8.75;1.90;;;;;;;;;;5036462;28;20474;-66
2022/09/24 12:52:53;;;;;;;5.97;1.55;;;;;;;;;;5044784;28;20381;-66
2022/09/24 12:55:23;;;;;;;7.95;1.90;;;;;;;;;;5041007;28;20636;-66
2022/09/24 12:58:02;;;;;;;9.23;2.03;;;;;;;;;;5042404;28;20040;-66
2022/09/24 13:00:45;;;;;;;7.05;1.70;;;;;;;;;;5039158;28;20036;-66
2022/09/24 13:03:35;;;;;;;7.63;1.90;;;;;;;;;;5037095;28;20534;-66
2022/09/24 13:06:01;;;;;;;8.43;1.70;;;;;;;;;;5043817;28;20522;-66
2022/09/24 13:08:37;;;;;;;5.97;1.40;;;;;;;;;;5040153;28;20135;-66
2022/09/24 13:11:05;;;;;;;5.88;1.60;;;;;;;;;;5040473;28;20036;-67
2022/09/24 13:13:39;;;;;;;7.40;1.85;;;;;;;;;;5037997;28;20028;-66
2022/09/24 13:16:05;;;;;;;6.90;1.52;;;;;;;;;;5038130;28;20204;-66
2022/09/24 13:18:34;;;;;;;6.88;1.70;;;;;;;;;;5034565;28;20049;-66
2022/09/24 13:21:07;;;;;;;10.10;1.90;;;;;;;;;;5043820;28;20040;-65
2022/09/24 13:23:37;;;;;;;7.28;1.60;;;;;;;;;;5040167;28;20392;-65
2022/09/24 13:26:03;;;;;;;8.43;1.45;;;;;;;;;;5040376;28;20545;-65
2022/09/24 13:28:32;;;;;;;8.20;1.70;;;;;;;;;;5034815;28;20147;-65
2022/09/24 13:31:04;;;;;;;8.07;1.83;;;;;;;;;;5041564;28;20040;-65
2022/09/24 13:33:31;;;;;;;8.88;1.60;;;;;;;;;;5044927;28;20032;-66
2022/09/24 13:35:57;;;;;;;7.80;1.50;;;;;;;;;;5049436;28;20048;-66
2022/09/24 13:38:53;;;;;;;6.93;1.50;;;;;;;;;;5044304;28;20029;-66
2022/09/24 13:41:26;;;;;;;9.68;1.60;;;;;;;;;;5043333;28;20469;-66
2022/09/24 13:43:52;;;;;;;8.82;1.55;;;;;;;;;;5045491;28;20044;-66
2022/09/24 13:46:19;;;;;;;8.55;1.55;;;;;;;;;;5040049;28;20332;-66
2022/09/24 13:48:57;;;;;;;6.15;1.42;;;;;;;;;;5046115;28;20098;-67
2022/09/24 13:51:26;;;;;;;8.68;1.50;;;;;;;;;;5039507;28;20139;-67
2022/09/24 13:53:52;;;;;;;7.72;1.45;;;;;;;;;;5042609;28;20036;-67
2022/09/24 13:56:19;;;;;;;6.68;1.70;;;;;;;;;;5044035;28;20027;-66
2022/09/24 13:58:46;;;;;;;5.18;1.33;;;;;;;;;;5042752;28;20105;-66
2022/09/24 14:01:28;;;;;;;6.47;1.55;;;;;;;;;;5043855;28;20146;-66
2022/09/24 14:04:05;;;;;;;6.35;1.27;;;;;;;;;;5040616;28;20025;-66
2022/09/24 14:06:41;;;;;;;8.32;1.70;;;;;;;;;;5041542;28;20032;-67
2022/09/24 14:09:22;;;;;;;6.30;1.58;;;;;;;;;;5040021;28;20041;-67
2022/09/24 14:11:51;;;;;;;6.45;1.45;;;;;;;;;;5045737;28;20085;-67
2022/09/24 14:14:19;;;;;;;6.30;1.40;;;;;;;;;;5042585;28;20024;-67
2022/09/24 14:16:46;;;;;;;7.25;1.48;;;;;;;;;;5044380;28;20045;-67
2022/09/24 14:19:13;;;;;;;7.38;1.60;;;;;;;;;;5044801;28;20033;-67
2022/09/24 14:21:42;;;;;;;5.97;1.25;;;;;;;;;;5043832;28;20031;-67
2022/09/24 14:24:23;;;;;;;6.10;1.48;;;;;;;;;;5039607;28;20119;-67
2022/09/24 14:27:08;;;;;;;7.32;1.55;;;;;;;;;;5047742;28;20031;-67
2022/09/24 14:29:37;;;;;;;5.85;1.48;;;;;;;;;;5045169;28;20472;-66
2022/09/24 14:32:04;;;;;;;5.40;1.30;;;;;;;;;;5048390;28;20128;-66
2022/09/24 14:34:30;;;;;;;7.88;1.50;;;;;;;;;;5042759;28;20055;-67
2022/09/24 14:36:58;;;;;;;5.18;1.50;;;;;;;;;;5050502;28;20028;-66
2022/09/24 14:39:25;;;;;;;8.98;1.50;;;;;;;;;;5040478;28;20953;-66
2022/09/24 14:41:52;;;;;;;5.88;1.30;;;;;;;;;;5044393;28;20051;-66
2022/09/24 14:44:23;;;;;;;8.00;1.73;;;;;;;;;;5039447;28;20025;-66
2022/09/24 14:46:50;;;;;;;5.82;1.42;;;;;;;;;;5046602;28;20028;-66
2022/09/24 14:49:17;;;;;;;6.65;1.60;;;;;;;;;;5042027;28;20171;-66
2022/09/24 14:51:53;;;;;;;8.27;1.55;;;;;;;;;;5048482;28;20093;-66
2022/09/24 14:54:22;;;;;;;9.57;1.42;;;;;;;;;;5038850;28;20032;-66
2022/09/24 14:56:48;;;;;;;6.32;1.50;;;;;;;;;;5046764;28;20082;-66
2022/09/24 14:59:16;;;;;;;8.65;1.58;;;;;;;;;;5045422;28;20170;-65
2022/09/24 15:01:43;;;;;;;7.22;1.60;;;;;;;;;;5046017;28;20413;-66
2022/09/24 15:04:36;;;;;;;7.25;1.50;;;;;;;;;;5043013;28;20138;-66
2022/09/24 15:07:03;;;;;;;4.45;1.20;;;;;;;;;;5047732;28;20324;-66
2022/09/24 15:09:30;;;;;;;7.05;1.30;;;;;;;;;;5040385;28;20561;-67
2022/09/24 15:12:09;;;;;;;6.57;1.60;;;;;;;;;;5046050;28;20059;-66
2022/09/24 15:14:36;;;;;;;6.45;1.55;;;;;;;;;;5045713;28;20469;-66